createdAt,value
2019-04-01T00:00:20.515Z,52.74
2019-04-01T00:01:20.479Z,53.12
2019-04-01T00:02:20.469Z,53.33
2019-04-01T00:03:20.461Z,52.92
2019-04-01T00:04:20.448Z,52.92
2019-04-01T00:05:20.475Z,52.92
2019-04-01T00:06:20.426Z,53.12
2019-04-01T00:07:20.414Z,52.20
2019-04-01T00:08:20.409Z,52.30
2019-04-01T00:09:20.393Z,52.40
2019-04-01T00:10:20.383Z,52.82
2019-04-01T00:11:20.407Z,53.03
2019-04-01T00:12:20.360Z,52.72
2019-04-01T00:13:20.349Z,53.05
2019-04-01T00:14:20.338Z,53.64
2019-04-01T00:15:20.328Z,53.25
2019-04-01T00:16:20.317Z,53.64
2019-04-01T00:17:20.330Z,53.67
2019-04-01T00:18:20.298Z,53.77
2019-04-01T00:19:20.285Z,53.56
2019-04-01T00:20:20.273Z,54.08
2019-04-01T00:21:20.265Z,54.39
2019-04-01T00:22:20.288Z,53.77
2019-04-01T00:23:20.241Z,54.39
2019-04-01T00:24:20.233Z,54.73
2019-04-01T00:25:20.218Z,53.56
2019-04-01T00:26:20.210Z,54.71
2019-04-01T00:27:20.195Z,54.73
2019-04-01T00:28:20.212Z,54.60
2019-04-01T00:29:20.178Z,53.67
2019-04-01T00:30:20.166Z,53.56
2019-04-01T00:31:20.157Z,54.73
2019-04-01T00:32:20.144Z,53.38
2019-04-01T00:33:20.183Z,54.42
2019-04-01T00:34:20.122Z,54.42
2019-04-01T00:35:20.113Z,54.94
2019-04-01T00:36:20.101Z,54.83
2019-04-01T00:37:20.089Z,55.04
2019-04-01T00:38:20.078Z,55.15
2019-04-01T00:39:20.095Z,54.94
2019-04-01T00:40:20.058Z,55.25
2019-04-01T00:41:20.046Z,55.04
2019-04-01T00:42:20.035Z,55.15
2019-04-01T00:43:20.027Z,55.15
2019-04-01T00:44:20.050Z,54.86
2019-04-01T00:45:20.004Z,55.48
2019-04-01T00:46:19.992Z,56.10
2019-04-01T00:47:19.981Z,55.90
2019-04-01T00:48:19.970Z,56.31
2019-04-01T00:49:19.960Z,56.10
2019-04-01T00:50:19.973Z,55.58
2019-04-01T00:51:19.941Z,56.41
2019-04-01T00:52:19.929Z,56.21
2019-04-01T00:53:19.921Z,55.58
2019-04-01T00:54:19.907Z,55.69
2019-04-01T00:55:19.919Z,56.41
2019-04-01T00:56:19.883Z,56.83
2019-04-01T00:57:19.873Z,56.21
2019-04-01T00:58:19.860Z,56.31
2019-04-01T00:59:19.851Z,56.73
2019-04-01T01:00:19.876Z,56.31
2019-04-01T01:01:19.832Z,57.04
2019-04-01T01:02:19.819Z,57.04
2019-04-01T01:03:19.807Z,57.04
2019-04-01T01:04:19.797Z,57.45
2019-04-01T01:05:19.788Z,57.24
2019-04-01T01:06:19.810Z,57.45
2019-04-01T01:07:19.764Z,57.69
2019-04-01T01:08:19.752Z,57.69
2019-04-01T01:09:19.745Z,57.45
2019-04-01T01:10:19.737Z,58.52
2019-04-01T01:11:19.719Z,57.14
2019-04-01T01:12:19.734Z,58.00
2019-04-01T01:13:19.698Z,58.31
2019-04-01T01:14:19.686Z,58.62
2019-04-01T01:15:19.674Z,58.21
2019-04-01T01:16:19.667Z,58.31
2019-04-01T01:17:19.680Z,58.83
2019-04-01T01:18:19.642Z,58.52
2019-04-01T01:19:19.632Z,58.42
2019-04-01T01:20:19.621Z,58.94
2019-04-01T01:21:19.612Z,58.52
2019-04-01T01:22:19.641Z,58.83
2019-04-01T01:23:19.590Z,58.83
2019-04-01T01:24:19.580Z,58.62
2019-04-01T01:25:19.569Z,58.73
2019-04-01T01:26:19.558Z,58.73
2019-04-01T01:27:19.547Z,58.73
2019-04-01T01:28:19.573Z,59.35
2019-04-01T01:29:19.528Z,59.04
2019-04-01T01:30:19.515Z,60.18
2019-04-01T01:31:19.506Z,59.77
2019-04-01T01:32:19.500Z,60.39
2019-04-01T01:33:19.482Z,60.08
2019-04-01T01:34:19.494Z,59.77
2019-04-01T01:35:19.460Z,59.25
2019-04-01T01:36:19.450Z,59.77
2019-04-01T01:37:19.442Z,60.08
2019-04-01T01:38:19.429Z,60.08
2019-04-01T01:39:19.455Z,60.60
2019-04-01T01:40:19.406Z,60.21
2019-04-01T01:41:19.399Z,60.49
2019-04-01T01:42:19.386Z,60.31
2019-04-01T01:43:19.376Z,60.28
2019-04-01T01:44:19.364Z,60.41
2019-04-01T01:45:19.389Z,61.04
2019-04-01T01:46:19.343Z,60.52
2019-04-01T01:47:19.333Z,61.04
2019-04-01T01:48:19.321Z,60.93
2019-04-01T01:49:19.310Z,60.83
2019-04-01T01:50:19.301Z,61.66
2019-04-01T01:51:19.328Z,60.75
2019-04-01T01:52:19.279Z,61.38
2019-04-01T01:53:19.269Z,61.48
2019-04-01T01:54:19.259Z,61.35
2019-04-01T01:55:19.249Z,61.76
2019-04-01T01:56:19.237Z,61.58
2019-04-01T01:57:19.251Z,61.45
2019-04-01T01:58:19.217Z,61.35
2019-04-01T01:59:19.204Z,61.97
2019-04-01T02:00:19.193Z,61.38
2019-04-01T02:01:19.185Z,61.76
2019-04-01T02:02:19.198Z,61.66
2019-04-01T02:03:19.163Z,61.58
2019-04-01T02:04:19.153Z,61.66
2019-04-01T02:05:19.145Z,61.35
2019-04-01T02:06:19.131Z,62.31
2019-04-01T02:07:19.157Z,62.52
2019-04-01T02:08:19.109Z,62.28
2019-04-01T02:09:19.100Z,61.87
2019-04-01T02:10:19.094Z,62.31
2019-04-01T02:11:19.079Z,62.49
2019-04-01T02:12:19.068Z,62.59
2019-04-01T02:13:20.120Z,62.07
2019-04-01T02:14:19.046Z,62.49
2019-04-01T02:15:19.036Z,62.38
2019-04-01T02:16:19.030Z,62.38
2019-04-01T02:17:19.016Z,62.52
2019-04-01T02:18:19.043Z,62.73
2019-04-01T02:19:18.994Z,63.32
2019-04-01T02:20:18.982Z,63.14
2019-04-01T02:21:18.975Z,63.14
2019-04-01T02:22:18.961Z,63.56
2019-04-01T02:23:18.951Z,63.56
2019-04-01T02:24:18.964Z,63.56
2019-04-01T02:25:18.930Z,63.87
2019-04-01T02:26:18.919Z,64.18
2019-04-01T02:27:18.910Z,64.00
2019-04-01T02:28:18.898Z,64.18
2019-04-01T02:29:18.917Z,64.42
2019-04-01T02:30:18.878Z,64.21
2019-04-01T02:31:18.874Z,64.21
2019-04-01T02:32:18.857Z,64.21
2019-04-01T02:33:18.851Z,64.31
2019-04-01T02:34:18.873Z,64.21
2019-04-01T02:35:18.824Z,64.00
2019-04-01T02:36:18.827Z,63.87
2019-04-01T02:37:18.802Z,63.90
2019-04-01T02:38:18.792Z,64.52
2019-04-01T02:39:18.782Z,64.62
2019-04-01T02:40:21.940Z,64.49
2019-04-01T02:41:18.763Z,63.76
2019-04-01T02:42:18.750Z,64.18
2019-04-01T02:43:18.741Z,64.28
2019-04-01T02:44:18.726Z,64.18
2019-04-01T02:45:18.744Z,64.28
2019-04-01T02:46:18.707Z,64.18
2019-04-01T02:47:18.697Z,64.00
2019-04-01T02:48:18.689Z,64.07
2019-04-01T02:49:18.676Z,63.90
2019-04-01T02:50:18.690Z,64.52
2019-04-01T02:51:18.673Z,64.42
2019-04-01T02:52:18.653Z,64.62
2019-04-01T02:53:18.649Z,64.94
2019-04-01T02:54:18.624Z,64.42
2019-04-01T02:55:18.645Z,64.11
2019-04-01T02:56:18.600Z,64.52
2019-04-01T02:57:18.594Z,64.11
2019-04-01T02:58:18.581Z,65.04
2019-04-01T02:59:18.572Z,65.87
2019-04-01T03:00:18.595Z,65.97
2019-04-01T03:01:18.552Z,65.97
2019-04-01T03:02:18.544Z,66.39
2019-04-01T03:03:18.528Z,66.18
2019-04-01T03:04:18.523Z,65.97
2019-04-01T03:05:18.525Z,66.18
2019-04-01T03:06:18.532Z,66.39
2019-04-01T03:07:18.483Z,65.87
2019-04-01T03:08:18.474Z,66.18
2019-04-01T03:09:18.498Z,65.56
2019-04-01T03:10:18.450Z,65.66
2019-04-01T03:11:18.443Z,65.66
2019-04-01T03:12:18.460Z,65.97
2019-04-01T03:13:18.422Z,66.00
2019-04-01T03:14:18.409Z,66.11
2019-04-01T03:15:18.403Z,66.53
2019-04-01T03:16:18.394Z,66.00
2019-04-01T03:17:18.415Z,65.80
2019-04-01T03:18:18.367Z,66.71
2019-04-01T03:19:18.357Z,66.08
2019-04-01T03:20:18.343Z,66.18
2019-04-01T03:21:18.333Z,66.11
2019-04-01T03:22:18.335Z,66.00
2019-04-01T03:23:18.355Z,65.90
2019-04-01T03:24:18.303Z,66.42
2019-04-01T03:25:18.290Z,66.94
2019-04-01T03:26:18.289Z,67.29
2019-04-01T03:27:18.276Z,67.15
2019-04-01T03:28:18.296Z,67.80
2019-04-01T03:29:18.249Z,67.91
2019-04-01T03:30:18.243Z,68.12
2019-04-01T03:31:18.257Z,67.80
2019-04-01T03:32:18.219Z,67.80
2019-04-01T03:33:18.209Z,68.04
2019-04-01T03:34:18.225Z,67.42
2019-04-01T03:35:18.186Z,67.91
2019-04-01T03:36:18.175Z,68.12
2019-04-01T03:37:18.169Z,67.94
2019-04-01T03:38:18.154Z,67.83
2019-04-01T03:39:18.192Z,67.91
2019-04-01T03:40:18.132Z,67.80
2019-04-01T03:41:18.129Z,68.46
2019-04-01T03:42:18.110Z,68.12
2019-04-01T03:43:18.239Z,68.35
2019-04-01T03:44:18.089Z,68.22
2019-04-01T03:45:18.122Z,68.35
2019-04-01T03:46:18.066Z,68.56
2019-04-01T03:47:18.056Z,68.32
2019-04-01T03:48:18.046Z,68.25
2019-04-01T03:49:18.037Z,68.35
2019-04-01T03:50:18.047Z,68.63
2019-04-01T03:51:18.014Z,68.77
2019-04-01T03:52:18.003Z,69.09
2019-04-01T03:53:17.994Z,69.09
2019-04-01T03:54:17.984Z,69.19
2019-04-01T03:55:17.996Z,69.40
2019-04-01T03:56:17.958Z,69.19
2019-04-01T03:57:17.949Z,69.40
2019-04-01T03:58:17.938Z,69.40
2019-04-01T03:59:17.939Z,69.50
2019-04-01T04:00:17.943Z,70.23
2019-04-01T04:01:17.905Z,70.23
2019-04-01T04:02:17.896Z,70.23
2019-04-01T04:03:17.884Z,70.36
2019-04-01T04:04:17.876Z,70.05
2019-04-01T04:05:17.900Z,70.26
2019-04-01T04:06:17.850Z,70.26
2019-04-01T04:07:17.841Z,70.15
2019-04-01T04:08:17.830Z,70.47
2019-04-01T04:09:17.819Z,70.68
2019-04-01T04:10:17.809Z,70.68
2019-04-01T04:11:17.825Z,70.68
2019-04-01T04:12:17.794Z,70.78
2019-04-01T04:13:17.778Z,71.20
2019-04-01T04:14:17.765Z,70.89
2019-04-01T04:15:17.755Z,70.89
2019-04-01T04:16:17.773Z,70.89
2019-04-01T04:17:17.736Z,71.12
2019-04-01T04:18:17.724Z,71.02
2019-04-01T04:19:17.714Z,70.89
2019-04-01T04:20:17.703Z,71.23
2019-04-01T04:21:17.729Z,71.12
2019-04-01T04:22:17.680Z,71.09
2019-04-01T04:23:17.686Z,71.09
2019-04-01T04:24:17.662Z,71.09
2019-04-01T04:25:17.646Z,71.33
2019-04-01T04:26:17.638Z,71.41
2019-04-01T04:27:17.657Z,71.12
2019-04-01T04:28:17.616Z,71.20
2019-04-01T04:29:17.611Z,71.12
2019-04-01T04:30:17.597Z,71.12
2019-04-01T04:31:17.586Z,71.09
2019-04-01T04:32:17.614Z,71.12
2019-04-01T04:33:17.564Z,70.99
2019-04-01T04:34:17.560Z,71.44
2019-04-01T04:35:17.546Z,71.09
2019-04-01T04:36:17.535Z,70.68
2019-04-01T04:37:17.520Z,70.78
2019-04-01T04:38:17.546Z,70.57
2019-04-01T04:39:17.501Z,70.40
2019-04-01T04:40:17.489Z,70.26
2019-04-01T04:41:17.477Z,70.36
2019-04-01T04:42:17.467Z,70.47
2019-04-01T04:43:17.457Z,70.47
2019-04-01T04:44:17.470Z,70.68
2019-04-01T04:45:17.436Z,70.36
2019-04-01T04:46:20.849Z,70.47
2019-04-01T04:47:17.416Z,70.47
2019-04-01T04:48:17.405Z,70.57
2019-04-01T04:49:17.430Z,70.68
2019-04-01T04:50:17.382Z,70.47
2019-04-01T04:51:17.373Z,70.68
2019-04-01T04:52:17.361Z,70.47
2019-04-01T04:53:17.351Z,70.57
2019-04-01T04:54:17.340Z,70.05
2019-04-01T04:55:17.354Z,69.95
2019-04-01T04:56:17.320Z,70.26
2019-04-01T04:57:20.270Z,70.36
2019-04-01T04:58:17.301Z,69.95
2019-04-01T04:59:17.286Z,69.84
2019-04-01T05:00:17.302Z,69.43
2019-04-01T05:01:17.267Z,69.71
2019-04-01T05:02:17.256Z,69.43
2019-04-01T05:03:17.245Z,69.50
2019-04-01T05:04:17.235Z,69.92
2019-04-01T05:05:17.252Z,69.74
2019-04-01T05:06:17.216Z,69.50
2019-04-01T05:07:17.202Z,69.92
2019-04-01T05:08:17.193Z,69.92
2019-04-01T05:09:17.199Z,69.92
2019-04-01T05:10:17.205Z,69.92
2019-04-01T05:11:17.164Z,69.60
2019-04-01T05:12:17.153Z,69.50
2019-04-01T05:13:17.138Z,69.19
2019-04-01T05:14:17.171Z,69.29
2019-04-01T05:15:17.155Z,69.29
2019-04-01T05:16:17.108Z,69.40
2019-04-01T05:17:17.101Z,69.50
2019-04-01T05:18:17.086Z,69.60
2019-04-01T05:19:17.080Z,69.68
2019-04-01T05:20:17.065Z,69.19
2019-04-01T05:21:17.088Z,68.88
2019-04-01T05:22:17.046Z,68.95
2019-04-01T05:23:17.033Z,69.09
2019-04-01T05:24:17.025Z,68.53
2019-04-01T05:25:17.012Z,68.84
2019-04-01T05:26:17.040Z,68.98
2019-04-01T05:27:17.019Z,69.09
2019-04-01T05:28:16.981Z,68.88
2019-04-01T05:29:16.971Z,68.46
2019-04-01T05:30:16.960Z,68.12
2019-04-01T05:31:16.950Z,68.32
2019-04-01T05:32:16.982Z,68.22
2019-04-01T05:33:16.927Z,68.32
2019-04-01T05:34:16.919Z,68.32
2019-04-01T05:35:16.911Z,68.12
2019-04-01T05:36:16.896Z,67.91
2019-04-01T05:37:16.885Z,67.98
2019-04-01T05:38:16.901Z,67.60
2019-04-01T05:39:16.864Z,67.25
2019-04-01T05:40:16.854Z,66.87
2019-04-01T05:41:16.881Z,66.77
2019-04-01T05:42:16.830Z,67.05
2019-04-01T05:43:16.858Z,66.84
2019-04-01T05:44:16.810Z,66.14
2019-04-01T05:45:16.803Z,66.14
2019-04-01T05:46:16.794Z,66.21
2019-04-01T05:47:16.779Z,66.53
2019-04-01T05:48:16.767Z,66.31
2019-04-01T05:49:16.786Z,66.42
2019-04-01T05:50:16.745Z,65.59
2019-04-01T05:51:16.734Z,65.77
2019-04-01T05:52:16.763Z,66.08
2019-04-01T05:53:16.713Z,65.77
2019-04-01T05:54:16.738Z,66.39
2019-04-01T05:55:16.693Z,66.18
2019-04-01T05:56:16.681Z,65.73
2019-04-01T05:57:16.673Z,65.45
2019-04-01T05:58:16.659Z,66.47
2019-04-01T05:59:16.650Z,65.42
2019-04-01T06:00:16.663Z,65.53
2019-04-01T06:01:16.629Z,64.90
2019-04-01T06:02:16.618Z,64.49
2019-04-01T06:03:16.607Z,64.39
2019-04-01T06:04:16.595Z,64.07
2019-04-01T06:05:16.611Z,64.56
2019-04-01T06:06:16.575Z,63.94
2019-04-01T06:07:16.564Z,64.04
2019-04-01T06:08:16.553Z,63.94
2019-04-01T06:09:16.629Z,64.04
2019-04-01T06:10:16.559Z,64.36
2019-04-01T06:11:16.523Z,63.42
2019-04-01T06:12:16.512Z,63.09
2019-04-01T06:13:16.539Z,62.88
2019-04-01T06:14:16.490Z,63.09
2019-04-01T06:15:16.505Z,62.77
2019-04-01T06:16:16.468Z,62.23
2019-04-01T06:17:16.458Z,62.23
2019-04-01T06:18:16.447Z,62.12
2019-04-01T06:19:16.439Z,61.29
2019-04-01T06:20:16.465Z,61.40
2019-04-01T06:21:16.417Z,61.71
2019-04-01T06:22:16.406Z,61.26
2019-04-01T06:23:16.397Z,61.68
2019-04-01T06:24:16.387Z,61.78
2019-04-01T06:25:16.380Z,60.85
2019-04-01T06:26:16.400Z,61.65
2019-04-01T06:27:16.743Z,61.24
2019-04-01T06:28:16.344Z,61.13
2019-04-01T06:29:16.338Z,60.93
2019-04-01T06:30:16.321Z,60.17
2019-04-01T06:31:16.310Z,59.16
2019-04-01T06:32:16.334Z,58.93
2019-04-01T06:33:16.287Z,58.41
2019-04-01T06:34:16.278Z,58.20
2019-04-01T06:35:16.265Z,57.68
2019-04-01T06:36:16.255Z,58.31
2019-04-01T06:37:16.244Z,58.51
2019-04-01T06:38:16.259Z,58.31
2019-04-01T06:39:16.227Z,58.31
2019-04-01T06:40:16.210Z,58.23
2019-04-01T06:41:16.202Z,58.10
2019-04-01T06:42:16.188Z,58.31
2019-04-01T06:43:16.215Z,57.58
2019-04-01T06:44:16.167Z,57.56
2019-04-01T06:45:16.161Z,57.27
2019-04-01T06:46:16.148Z,57.58
2019-04-01T06:47:16.166Z,57.35
2019-04-01T06:48:16.125Z,56.62
2019-04-01T06:49:16.139Z,56.83
2019-04-01T06:50:16.103Z,56.62
2019-04-01T06:51:16.095Z,56.39
2019-04-01T06:52:16.084Z,56.10
2019-04-01T06:53:16.072Z,55.56
2019-04-01T06:54:16.099Z,55.56
2019-04-01T06:55:16.051Z,56.18
2019-04-01T06:56:16.038Z,55.87
2019-04-01T06:57:16.029Z,55.05
2019-04-01T06:58:16.018Z,54.94
2019-04-01T06:59:16.010Z,54.94
2019-04-01T07:00:16.022Z,55.56
2019-04-01T07:01:15.985Z,55.35
2019-04-01T07:02:15.973Z,55.43
2019-04-01T07:03:18.615Z,54.74
2019-04-01T07:04:15.953Z,55.22
2019-04-01T07:05:15.970Z,55.85
2019-04-01T07:06:15.931Z,54.71
2019-04-01T07:07:19.176Z,54.91
2019-04-01T07:08:15.910Z,54.19
2019-04-01T07:09:15.906Z,54.71
2019-04-01T07:10:15.915Z,54.27
2019-04-01T07:11:15.878Z,54.40
2019-04-01T07:12:15.935Z,54.30
2019-04-01T07:13:15.856Z,54.19
2019-04-01T07:14:15.846Z,53.47
2019-04-01T07:15:15.872Z,54.06
2019-04-01T07:16:16.339Z,52.62
2019-04-01T07:17:15.815Z,53.26
2019-04-01T07:18:15.803Z,53.34
2019-04-01T07:19:15.792Z,53.03
2019-04-01T07:20:15.782Z,53.36
2019-04-01T07:21:15.804Z,52.62
2019-04-01T07:22:15.761Z,52.20
2019-04-01T07:23:15.748Z,52.83
2019-04-01T07:24:15.739Z,51.48
2019-04-01T07:25:15.729Z,52.10
2019-04-01T07:26:15.752Z,51.79
2019-04-01T07:27:15.706Z,51.76
2019-04-01T07:28:15.696Z,52.20
2019-04-01T07:29:15.687Z,51.68
2019-04-01T07:30:15.675Z,51.25
2019-04-01T07:31:15.662Z,51.43
2019-04-01T07:32:15.688Z,51.74
2019-04-01T07:33:15.642Z,51.20
2019-04-01T07:34:15.631Z,50.99
2019-04-01T07:35:15.623Z,51.64
2019-04-01T07:36:15.610Z,50.79
2019-04-01T07:37:15.599Z,49.96
2019-04-01T07:38:15.612Z,50.38
2019-04-01T07:39:15.579Z,49.84
2019-04-01T07:40:15.574Z,50.04
2019-04-01T07:41:15.558Z,49.84
2019-04-01T07:42:15.547Z,49.32
2019-04-01T07:43:15.572Z,49.01
2019-04-01T07:44:15.527Z,48.70
2019-04-01T07:45:15.515Z,48.49
2019-04-01T07:46:15.504Z,48.91
2019-04-01T07:47:15.495Z,48.78
2019-04-01T07:48:15.483Z,48.91
2019-04-01T07:49:15.501Z,47.46
2019-04-01T07:50:15.463Z,48.49
2019-04-01T07:51:15.478Z,48.91
2019-04-01T07:52:15.440Z,48.47
2019-04-01T07:53:15.429Z,48.27
2019-04-01T07:54:18.450Z,47.34
2019-04-01T07:55:15.409Z,47.65
2019-04-01T07:56:15.402Z,46.72
2019-04-01T07:57:15.383Z,46.70
2019-04-01T07:58:15.373Z,46.80
2019-04-01T07:59:15.363Z,47.11
2019-04-01T08:00:15.376Z,46.19
2019-04-01T08:01:15.340Z,45.36
2019-04-01T08:02:15.329Z,44.84
2019-04-01T08:03:15.319Z,44.76
2019-04-01T08:04:15.316Z,44.76
2019-04-01T08:05:15.321Z,44.86
2019-04-01T08:06:15.291Z,45.17
2019-04-01T08:07:15.275Z,45.07
2019-04-01T08:08:15.263Z,44.45
2019-04-01T08:09:15.252Z,44.53
2019-04-01T08:10:15.273Z,44.53
2019-04-01T08:11:15.306Z,43.59
2019-04-01T08:12:15.226Z,43.69
2019-04-01T08:13:15.209Z,44.31
2019-04-01T08:14:15.198Z,43.48
2019-04-01T08:15:15.214Z,43.17
2019-04-01T08:16:15.200Z,43.07
2019-04-01T08:17:15.166Z,44.10
2019-04-01T08:18:15.154Z,43.38
2019-04-01T08:19:15.151Z,43.59
2019-04-01T08:20:15.167Z,44.72
2019-04-01T08:21:15.122Z,44.51
2019-04-01T08:22:15.112Z,44.62
2019-04-01T08:23:15.110Z,44.31
2019-04-01T08:24:15.090Z,43.98
2019-04-01T08:25:15.083Z,43.57
2019-04-01T08:26:15.106Z,43.05
2019-04-01T08:27:15.057Z,43.38
2019-04-01T08:28:15.053Z,44.20
2019-04-01T08:29:29.183Z,43.79
2019-04-01T08:30:16.024Z,43.69
2019-04-01T08:31:15.015Z,43.46
2019-04-01T08:32:15.044Z,43.54
2019-04-01T08:33:14.994Z,43.65
2019-04-01T08:34:14.983Z,43.03
2019-04-01T08:35:14.972Z,43.24
2019-04-01T08:36:14.964Z,42.31
2019-04-01T08:37:14.951Z,43.03
2019-04-01T08:38:14.991Z,43.13
2019-04-01T08:39:14.945Z,43.21
2019-04-01T08:40:14.920Z,42.60
2019-04-01T08:41:14.912Z,43.42
2019-04-01T08:42:14.905Z,42.80
2019-04-01T08:43:14.918Z,41.98
2019-04-01T08:44:14.877Z,41.88
2019-04-01T08:45:14.869Z,41.77
2019-04-01T08:46:14.853Z,42.19
2019-04-01T08:47:14.844Z,43.09
2019-04-01T08:48:14.869Z,42.08
2019-04-01T08:49:14.823Z,42.70
2019-04-01T08:50:14.813Z,41.86
2019-04-01T08:51:14.802Z,43.09
2019-04-01T08:52:14.796Z,42.47
2019-04-01T08:53:14.781Z,41.24
2019-04-01T08:54:14.809Z,40.91
2019-04-01T08:55:14.763Z,40.91
2019-04-01T08:56:14.749Z,41.94
2019-04-01T08:57:14.738Z,41.84
2019-04-01T08:58:14.730Z,41.75
2019-04-01T08:59:14.718Z,41.63
2019-04-01T09:00:14.730Z,41.63
2019-04-01T09:01:14.709Z,41.74
2019-04-01T09:02:18.038Z,41.53
2019-04-01T09:03:14.677Z,40.91
2019-04-01T09:04:14.664Z,40.91
2019-04-01T09:05:14.733Z,41.84
2019-04-01T09:06:14.644Z,41.24
2019-04-01T09:07:14.631Z,41.22
2019-04-01T09:08:14.630Z,41.53
2019-04-01T09:09:14.609Z,40.91
2019-04-01T09:10:14.622Z,41.94
2019-04-01T09:11:14.592Z,41.96
2019-04-01T09:12:14.576Z,41.94
2019-04-01T09:13:14.567Z,41.45
2019-04-01T09:14:14.554Z,41.86
2019-04-01T09:15:14.589Z,41.84
2019-04-01T09:16:14.535Z,41.22
2019-04-01T09:17:14.520Z,40.61
2019-04-01T09:18:14.511Z,41.00
2019-04-01T09:19:14.501Z,41.00
2019-04-01T09:20:14.525Z,40.36
2019-04-01T09:21:14.477Z,40.28
2019-04-01T09:22:14.467Z,40.17
2019-04-01T09:23:14.456Z,40.17
2019-04-01T09:24:14.446Z,39.75
2019-04-01T09:25:14.436Z,39.54
2019-04-01T09:26:14.524Z,40.26
2019-04-01T09:27:14.417Z,40.26
2019-04-01T09:28:14.411Z,40.47
2019-04-01T09:29:14.391Z,39.42
2019-04-01T09:30:14.381Z,38.41
2019-04-01T09:31:14.406Z,40.05
2019-04-01T09:32:14.361Z,40.67
2019-04-01T09:33:14.350Z,40.36
2019-04-01T09:34:14.337Z,40.05
2019-04-01T09:35:14.327Z,39.75
2019-04-01T09:36:14.316Z,40.24
2019-04-01T09:37:14.329Z,39.32
2019-04-01T09:38:14.294Z,38.70
2019-04-01T09:39:14.290Z,39.22
2019-04-01T09:40:14.275Z,39.85
2019-04-01T09:41:14.263Z,38.62
2019-04-01T09:42:14.277Z,39.34
2019-04-01T09:43:14.544Z,40.47
2019-04-01T09:44:14.231Z,40.57
2019-04-01T09:45:14.221Z,41.06
2019-04-01T09:46:14.212Z,40.45
2019-04-01T09:47:14.234Z,40.73
2019-04-01T09:48:14.208Z,40.12
2019-04-01T09:49:14.178Z,40.53
2019-04-01T09:50:14.170Z,39.61
2019-04-01T09:51:14.157Z,39.07
2019-04-01T09:52:14.150Z,38.67
2019-04-01T09:53:14.162Z,37.64
2019-04-01T09:54:14.133Z,38.26
2019-04-01T09:55:14.114Z,38.46
2019-04-01T09:56:14.107Z,38.28
2019-04-01T09:57:17.675Z,39.20
2019-04-01T09:58:14.115Z,39.81
2019-04-01T09:59:14.073Z,38.99
2019-04-01T10:00:14.061Z,38.07
2019-04-01T10:01:14.052Z,38.49
2019-04-01T10:02:14.040Z,38.19
2019-04-01T10:03:14.065Z,38.29
2019-04-01T10:04:14.020Z,38.58
2019-04-01T10:05:14.010Z,37.64
2019-04-01T10:06:13.998Z,37.54
2019-04-01T10:07:13.989Z,38.05
2019-04-01T10:08:13.982Z,37.23
2019-04-01T10:09:13.990Z,37.86
2019-04-01T10:10:13.955Z,38.56
2019-04-01T10:11:13.960Z,39.18
2019-04-01T10:12:13.936Z,39.07
2019-04-01T10:13:13.924Z,37.74
2019-04-01T10:14:13.940Z,37.64
2019-04-01T10:15:13.900Z,37.33
2019-04-01T10:16:13.891Z,37.23
2019-04-01T10:17:13.882Z,36.61
2019-04-01T10:18:13.872Z,38.03
2019-04-01T10:19:13.895Z,36.90
2019-04-01T10:20:13.848Z,36.29
2019-04-01T10:21:13.837Z,36.92
2019-04-01T10:22:13.827Z,36.10
2019-04-01T10:23:13.814Z,36.72
2019-04-01T10:24:13.818Z,36.90
2019-04-01T10:25:13.817Z,36.49
2019-04-01T10:26:13.848Z,36.30
2019-04-01T10:27:13.773Z,36.00
2019-04-01T10:28:13.766Z,36.19
2019-04-01T10:29:13.752Z,37.01
2019-04-01T10:30:13.767Z,36.89
2019-04-01T10:31:13.730Z,35.66
2019-04-01T10:32:13.718Z,34.84
2019-04-01T10:33:13.708Z,35.66
2019-04-01T10:34:13.715Z,36.27
2019-04-01T10:35:13.810Z,35.85
2019-04-01T10:36:13.675Z,36.36
2019-04-01T10:37:13.664Z,36.46
2019-04-01T10:38:13.652Z,36.05
2019-04-01T10:39:13.650Z,36.55
2019-04-01T10:40:13.670Z,35.83
2019-04-01T10:41:13.622Z,35.52
2019-04-01T10:42:13.609Z,35.22
2019-04-01T10:43:13.597Z,34.19
2019-04-01T10:44:13.586Z,35.11
2019-04-01T10:45:13.581Z,34.69
2019-04-01T10:46:13.591Z,34.89
2019-04-01T10:47:13.556Z,34.36
2019-04-01T10:48:13.562Z,34.25
2019-04-01T10:49:13.542Z,35.06
2019-04-01T10:50:13.555Z,34.64
2019-04-01T10:51:13.549Z,34.12
2019-04-01T10:52:13.534Z,34.33
2019-04-01T10:53:13.518Z,34.11
2019-04-01T10:54:13.551Z,33.91
2019-04-01T10:55:13.526Z,33.91
2019-04-01T10:56:13.549Z,33.19
2019-04-01T10:57:13.478Z,32.99
2019-04-01T10:58:13.436Z,32.78
2019-04-01T10:59:13.478Z,33.11
2019-04-01T11:00:13.465Z,33.00
2019-04-01T11:01:13.495Z,33.92
2019-04-01T11:02:13.478Z,33.50
2019-04-01T11:03:13.522Z,33.59
2019-04-01T11:04:13.464Z,33.09
2019-04-01T11:05:13.474Z,34.22
2019-04-01T11:06:13.360Z,32.89
2019-04-01T11:07:13.417Z,32.77
2019-04-01T11:08:13.373Z,33.18
2019-04-01T11:09:13.388Z,33.47
2019-04-01T11:10:13.329Z,32.84
2019-04-01T11:11:13.299Z,31.72
2019-04-01T11:12:13.289Z,32.21
2019-04-01T11:13:13.399Z,31.18
2019-04-01T11:14:13.268Z,30.83
2019-04-01T11:15:15.639Z,29.87
2019-04-01T11:16:13.242Z,29.22
2019-04-01T11:17:13.235Z,27.26
2019-04-01T11:18:13.222Z,26.73
2019-04-01T11:19:13.233Z,26.12
2019-04-01T11:20:13.218Z,26.40
2019-04-01T11:21:13.187Z,26.19
2019-04-01T11:22:13.178Z,24.96
2019-04-01T11:23:13.165Z,25.26
2019-04-01T11:24:13.179Z,25.17
2019-04-01T11:25:13.143Z,25.75
2019-04-01T11:26:13.141Z,25.03
2019-04-01T11:27:13.123Z,24.41
2019-04-01T11:28:13.111Z,24.10
2019-04-01T11:29:13.140Z,23.70
2019-04-01T11:30:13.905Z,23.47
2019-04-01T11:31:13.114Z,22.95
2019-04-01T11:32:13.748Z,22.44
2019-04-01T11:33:13.058Z,22.44
2019-04-01T11:34:13.080Z,22.53
2019-04-01T11:35:13.071Z,21.42
2019-04-01T11:36:13.912Z,23.11
2019-04-01T11:37:13.039Z,20.81
2019-04-01T11:38:13.017Z,21.29
2019-04-01T11:39:13.019Z,21.60
2019-04-01T11:40:13.053Z,21.48
2019-04-01T11:41:12.976Z,20.36
2019-04-01T11:42:12.999Z,20.87
2019-04-01T11:43:12.975Z,20.64
2019-04-01T11:44:12.979Z,20.34
2019-04-01T11:45:12.983Z,20.34
2019-04-01T11:46:13.061Z,20.12
2019-04-01T11:47:12.956Z,20.34
2019-04-01T11:48:12.961Z,20.34
2019-04-01T11:49:12.902Z,20.45
2019-04-01T11:50:13.021Z,20.75
2019-04-01T11:51:12.882Z,20.14
2019-04-01T11:52:15.543Z,20.73
2019-04-01T11:53:12.843Z,20.75
2019-04-01T11:54:12.832Z,20.68
2019-04-01T11:55:12.847Z,21.64
2019-04-01T11:56:12.821Z,22.34
2019-04-01T11:57:12.802Z,22.63
2019-04-01T11:58:12.790Z,21.70
2019-04-01T11:59:12.782Z,21.28
2019-04-01T12:00:13.503Z,21.67
2019-04-01T12:01:12.761Z,21.66
2019-04-01T12:02:12.746Z,21.57
2019-04-01T12:03:12.737Z,20.76
2019-04-01T12:04:12.726Z,21.39
2019-04-01T12:05:12.723Z,20.56
2019-04-01T12:06:12.752Z,20.36
2019-04-01T12:07:12.697Z,20.89
2019-04-01T12:08:12.684Z,21.48
2019-04-01T12:09:12.672Z,20.18
2019-04-01T12:10:12.664Z,20.22
2019-04-01T12:11:12.677Z,20.41
2019-04-01T12:12:23.386Z,21.11
2019-04-01T12:13:13.630Z,20.90
2019-04-01T12:14:12.628Z,20.50
2019-04-01T12:15:12.843Z,20.76
2019-04-01T12:16:12.644Z,19.34
2019-04-01T12:17:12.599Z,19.42
2019-04-01T12:18:12.579Z,20.12
2019-04-01T12:19:12.585Z,19.10
2019-04-01T12:20:12.559Z,18.59
2019-04-01T12:21:12.548Z,18.39
2019-04-01T12:22:12.572Z,18.58
2019-04-01T12:23:12.595Z,18.57
2019-04-01T12:24:12.598Z,17.77
2019-04-01T12:25:12.508Z,18.47
2019-04-01T12:26:15.232Z,19.46
2019-04-01T12:27:12.487Z,18.48
2019-04-01T12:28:12.606Z,19.21
2019-04-01T12:29:13.529Z,19.12
2019-04-01T12:30:12.454Z,19.04
2019-04-01T12:31:12.992Z,20.67
2019-04-01T12:32:12.435Z,19.90
2019-04-01T12:33:12.460Z,20.57
2019-04-01T12:34:12.414Z,19.95
2019-04-01T12:35:12.405Z,20.25
2019-04-01T12:36:12.391Z,19.45
2019-04-01T12:37:12.379Z,19.13
2019-04-01T12:38:12.371Z,19.83
2019-04-01T12:39:12.398Z,20.16
2019-04-01T12:40:12.352Z,20.56
2019-04-01T12:41:12.339Z,21.00
2019-04-01T12:42:12.337Z,21.17
2019-04-01T12:43:12.331Z,20.34
2019-04-01T12:44:12.336Z,19.42
2019-04-01T12:45:12.300Z,19.40
2019-04-01T12:46:12.290Z,19.70
2019-04-01T12:47:12.279Z,19.09
2019-04-01T12:48:12.270Z,19.20
2019-04-01T12:49:12.326Z,18.99
2019-04-01T12:50:12.247Z,19.38
2019-04-01T12:51:12.238Z,18.88
2019-04-01T12:52:12.230Z,18.07